sensor_id;sensor_type;location;lat;lon;timestamp;pressure;altitude;pressure_sealevel;temperature;humidity
63287;BME280;49410;55.708;37.522;2022-08-03T00:02:15;99475.75;;;19.21;nan
63287;BME280;49410;55.708;37.522;2022-08-03T00:04:41;99493.41;;;19.27;nan
63287;BME280;49410;55.708;37.522;2022-08-03T00:07:06;99488.31;;;19.23;nan
63287;BME280;49410;55.708;37.522;2022-08-03T00:09:32;99493.28;;;19.33;nan
63287;BME280;49410;55.708;37.522;2022-08-03T00:11:57;99458.53;;;19.19;nan
63287;BME280;49410;55.708;37.522;2022-08-03T00:14:23;99498.28;;;19.43;nan
63287;BME280;49410;55.708;37.522;2022-08-03T00:16:49;99489.97;;;19.43;nan
63287;BME280;49410;55.708;37.522;2022-08-03T00:19:14;99481.91;;;19.42;nan
63287;BME280;49410;55.708;37.522;2022-08-03T00:21:40;99489.16;;;19.43;nan
63287;BME280;49410;55.708;37.522;2022-08-03T00:24:05;99503.75;;;19.50;nan
63287;BME280;49410;55.708;37.522;2022-08-03T00:26:31;99493.56;;;19.44;nan
63287;BME280;49410;55.708;37.522;2022-08-03T00:28:56;99489.34;;;19.41;nan
63287;BME280;49410;55.708;37.522;2022-08-03T00:31:22;99499.03;;;19.50;nan
63287;BME280;49410;55.708;37.522;2022-08-03T00:33:48;99490.59;;;19.45;nan
63287;BME280;49410;55.708;37.522;2022-08-03T00:36:13;99487.66;;;19.40;nan
63287;BME280;49410;55.708;37.522;2022-08-03T00:38:39;99493.38;;;19.45;nan
63287;BME280;49410;55.708;37.522;2022-08-03T00:41:04;99490.22;;;19.42;nan
63287;BME280;49410;55.708;37.522;2022-08-03T00:43:29;99487.66;;;19.40;nan
63287;BME280;49410;55.708;37.522;2022-08-03T00:45:55;99485.97;;;19.39;nan
63287;BME280;49410;55.708;37.522;2022-08-03T00:48:21;99485.13;;;19.38;nan
63287;BME280;49410;55.708;37.522;2022-08-03T00:50:47;99490.22;;;19.42;nan
63287;BME280;49410;55.708;37.522;2022-08-03T00:53:13;99478.59;;;19.33;nan
63287;BME280;49410;55.708;37.522;2022-08-03T00:55:40;99486.66;;;19.34;nan
63287;BME280;49410;55.708;37.522;2022-08-03T00:58:07;99485.84;;;19.34;nan
63287;BME280;49410;55.708;37.522;2022-08-03T01:00:34;99480.81;;;19.24;nan
63287;BME280;49410;55.708;37.522;2022-08-03T01:03:01;99485.47;;;19.30;nan
63287;BME280;49410;55.708;37.522;2022-08-03T01:05:28;99469.97;;;19.22;nan
63287;BME280;49410;55.708;37.522;2022-08-03T01:08:15;99481.44;;;19.26;nan
63287;BME280;49410;55.708;37.522;2022-08-03T01:10:53;99475.75;;;19.21;nan
63287;BME280;49410;55.708;37.522;2022-08-03T01:13:49;99482.84;;;19.17;nan
63287;BME280;49410;55.708;37.522;2022-08-03T01:16:27;99472.31;;;19.07;nan
63287;BME280;49410;55.708;37.522;2022-08-03T01:21:56;99466.22;;;18.98;nan
63287;BME280;49410;55.708;37.522;2022-08-03T01:24:42;99472.22;;;18.95;nan
63287;BME280;49410;55.708;37.522;2022-08-03T01:27:14;99482.22;;;18.96;nan
63287;BME280;49410;55.708;37.522;2022-08-03T01:30:05;99469.72;;;18.87;nan
63287;BME280;49410;55.708;37.522;2022-08-03T01:35:15;99468.72;;;18.81;nan
63287;BME280;49410;55.708;37.522;2022-08-03T01:37:55;99478.66;;;18.89;nan
63287;BME280;49410;55.708;37.522;2022-08-03T01:40:24;99467.25;;;18.78;nan
63287;BME280;49410;55.708;37.522;2022-08-03T01:42:50;99485.97;;;18.83;nan
63287;BME280;49410;55.708;37.522;2022-08-03T01:45:17;99471.09;;;18.77;nan
63287;BME280;49410;55.708;37.522;2022-08-03T01:47:44;99483.25;;;18.76;nan
63287;BME280;49410;55.708;37.522;2022-08-03T01:50:12;99496.41;;;18.81;nan
63287;BME280;49410;55.708;37.522;2022-08-03T01:52:43;99486.78;;;18.84;nan
63287;BME280;49410;55.708;37.522;2022-08-03T01:55:10;99457.78;;;18.68;nan
63287;BME280;49410;55.708;37.522;2022-08-03T01:57:38;99488.28;;;18.86;nan
63287;BME280;49410;55.708;37.522;2022-08-03T02:00:05;99491.88;;;18.87;nan
63287;BME280;49410;55.708;37.522;2022-08-03T02:02:35;99501.03;;;18.87;nan
63287;BME280;49410;55.708;37.522;2022-08-03T02:05:03;99487.03;;;18.82;nan
63287;BME280;49410;55.708;37.522;2022-08-03T02:07:30;99498.06;;;18.89;nan
63287;BME280;49410;55.708;37.522;2022-08-03T02:10:00;99496.53;;;18.93;nan
63287;BME280;49410;55.708;37.522;2022-08-03T02:12:29;99493.13;;;18.91;nan
63287;BME280;49410;55.708;37.522;2022-08-03T02:18:12;99500.94;;;19.01;nan
63287;BME280;49410;55.708;37.522;2022-08-03T02:20:40;99497.69;;;19.04;nan
63287;BME280;49410;55.708;37.522;2022-08-03T02:23:06;99496.38;;;19.06;nan
63287;BME280;49410;55.708;37.522;2022-08-03T02:25:32;99502.94;;;19.12;nan
63287;BME280;49410;55.708;37.522;2022-08-03T02:28:28;99499.00;;;19.20;nan
63287;BME280;49410;55.708;37.522;2022-08-03T02:30:57;99507.47;;;19.25;nan
63287;BME280;49410;55.708;37.522;2022-08-03T02:33:36;99507.00;;;19.28;nan
63287;BME280;49410;55.708;37.522;2022-08-03T02:36:03;99501.22;;;19.30;nan
63287;BME280;49410;55.708;37.522;2022-08-03T02:38:35;99499.25;;;19.37;nan
63287;BME280;49410;55.708;37.522;2022-08-03T02:41:05;99505.22;;;19.52;nan
63287;BME280;49410;55.708;37.522;2022-08-03T02:43:34;99495.44;;;19.50;nan
63287;BME280;49410;55.708;37.522;2022-08-03T02:46:00;99489.56;;;19.58;nan
63287;BME280;49410;55.708;37.522;2022-08-03T02:48:28;99510.09;;;19.69;nan
63287;BME280;49410;55.708;37.522;2022-08-03T02:50:57;99501.78;;;19.69;nan
63287;BME280;49410;55.708;37.522;2022-08-03T02:53:24;99504.00;;;19.79;nan
63287;BME280;49410;55.708;37.522;2022-08-03T02:55:51;99501.22;;;19.79;nan
63287;BME280;49410;55.708;37.522;2022-08-03T02:58:19;99495.63;;;19.85;nan
63287;BME280;49410;55.708;37.522;2022-08-03T03:00:48;99491.66;;;19.93;nan
63287;BME280;49410;55.708;37.522;2022-08-03T03:03:16;99504.47;;;20.06;nan
63287;BME280;49410;55.708;37.522;2022-08-03T03:05:42;99499.81;;;20.19;nan
63287;BME280;49410;55.708;37.522;2022-08-03T03:08:11;99503.22;;;20.32;nan
63287;BME280;49410;55.708;37.522;2022-08-03T03:10:37;99502.75;;;20.47;nan
63287;BME280;49410;55.708;37.522;2022-08-03T03:13:04;99515.66;;;20.66;nan
63287;BME280;49410;55.708;37.522;2022-08-03T03:15:30;99520.78;;;20.81;nan
63287;BME280;49410;55.708;37.522;2022-08-03T03:17:57;99509.31;;;20.89;nan
63287;BME280;49410;55.708;37.522;2022-08-03T03:20:24;99508.69;;;20.99;nan
63287;BME280;49410;55.708;37.522;2022-08-03T03:22:50;99515.22;;;21.16;nan
63287;BME280;49410;55.708;37.522;2022-08-03T03:25:16;99513.00;;;21.30;nan
63287;BME280;49410;55.708;37.522;2022-08-03T03:27:42;99618.38;;;21.55;nan
63287;BME280;49410;55.708;37.522;2022-08-03T03:30:08;99624.34;;;22.00;nan
63287;BME280;49410;55.708;37.522;2022-08-03T03:35:01;99626.56;;;22.90;nan
63287;BME280;49410;55.708;37.522;2022-08-03T03:37:27;99627.59;;;23.35;nan
63287;BME280;49410;55.708;37.522;2022-08-03T03:39:53;99625.28;;;23.71;nan
63287;BME280;49410;55.708;37.522;2022-08-03T03:42:19;99628.94;;;24.16;nan
63287;BME280;49410;55.708;37.522;2022-08-03T03:47:11;99606.13;;;24.52;nan
63287;BME280;49410;55.708;37.522;2022-08-03T03:49:37;99627.59;;;24.73;nan
63287;BME280;49410;55.708;37.522;2022-08-03T03:52:03;99623.72;;;24.79;nan
63287;BME280;49410;55.708;37.522;2022-08-03T03:59:29;99619.78;;;25.46;nan
63287;BME280;49410;55.708;37.522;2022-08-03T04:04:20;99617.22;;;26.02;nan
63287;BME280;49410;55.708;37.522;2022-08-03T04:12:32;99631.97;;;26.66;nan
63287;BME280;49410;55.708;37.522;2022-08-03T04:15:01;99626.97;;;26.79;nan
63287;BME280;49410;55.708;37.522;2022-08-03T04:17:28;99639.59;;;26.92;nan
63287;BME280;49410;55.708;37.522;2022-08-03T04:19:56;99635.41;;;27.00;nan
63287;BME280;49410;55.708;37.522;2022-08-03T04:22:25;99634.81;;;27.03;nan
63287;BME280;49410;55.708;37.522;2022-08-03T04:25:03;99625.28;;;26.99;nan
63287;BME280;49410;55.708;37.522;2022-08-03T04:27:40;99642.97;;;27.04;nan
63287;BME280;49410;55.708;37.522;2022-08-03T04:30:07;99620.53;;;27.04;nan
63287;BME280;49410;55.708;37.522;2022-08-03T04:32:36;99632.88;;;27.03;nan
63287;BME280;49410;55.708;37.522;2022-08-03T04:35:03;99632.03;;;26.97;nan
63287;BME280;49410;55.708;37.522;2022-08-03T04:40:05;99625.84;;;26.85;nan
63287;BME280;49410;55.708;37.522;2022-08-03T04:42:32;99629.50;;;26.86;nan
63287;BME280;49410;55.708;37.522;2022-08-03T04:47:24;99638.19;;;26.89;nan
63287;BME280;49410;55.708;37.522;2022-08-03T04:49:50;99632.03;;;27.08;nan
63287;BME280;49410;55.708;37.522;2022-08-03T04:52:16;99635.38;;;27.31;nan
63287;BME280;49410;55.708;37.522;2022-08-03T04:54:43;99627.22;;;27.50;nan
63287;BME280;49410;55.708;37.522;2022-08-03T04:57:10;99623.53;;;27.59;nan
63287;BME280;49410;55.708;37.522;2022-08-03T04:59:36;99634.31;;;28.02;nan
63287;BME280;49410;55.708;37.522;2022-08-03T05:02:02;99632.44;;;28.43;nan
63287;BME280;49410;55.708;37.522;2022-08-03T05:04:28;99629.75;;;28.72;nan
63287;BME280;49410;55.708;37.522;2022-08-03T05:06:53;99621.25;;;29.12;nan
63287;BME280;49410;55.708;37.522;2022-08-03T05:09:19;99631.34;;;29.48;nan
63287;BME280;49410;55.708;37.522;2022-08-03T05:11:44;99625.38;;;29.79;nan
63287;BME280;49410;55.708;37.522;2022-08-03T05:14:10;99629.50;;;30.11;nan
63287;BME280;49410;55.708;37.522;2022-08-03T05:16:35;99621.00;;;30.35;nan
63287;BME280;49410;55.708;37.522;2022-08-03T05:19:01;99631.72;;;30.57;nan
63287;BME280;49410;55.708;37.522;2022-08-03T05:21:26;99631.28;;;30.83;nan
63287;BME280;49410;55.708;37.522;2022-08-03T05:23:52;99637.53;;;30.99;nan
63287;BME280;49410;55.708;37.522;2022-08-03T05:26:17;99623.91;;;31.20;nan
63287;BME280;49410;55.708;37.522;2022-08-03T05:28:43;99622.38;;;31.42;nan
63287;BME280;49410;55.708;37.522;2022-08-03T05:31:09;99613.63;;;31.57;nan
63287;BME280;49410;55.708;37.522;2022-08-03T05:33:34;99613.44;;;31.68;nan
63287;BME280;49410;55.708;37.522;2022-08-03T05:36:00;99617.22;;;31.91;nan
63287;BME280;49410;55.708;37.522;2022-08-03T05:43:16;99652.53;;;32.44;nan
63287;BME280;49410;55.708;37.522;2022-08-03T05:45:42;99642.38;;;32.43;nan
63287;BME280;49410;55.708;37.522;2022-08-03T05:48:07;99643.13;;;32.35;nan
63287;BME280;49410;55.708;37.522;2022-08-03T05:50:33;99634.97;;;32.19;nan
63287;BME280;49410;55.708;37.522;2022-08-03T05:55:25;99636.16;;;32.04;nan
63287;BME280;49410;55.708;37.522;2022-08-03T05:57:51;99645.34;;;32.10;nan
63287;BME280;49410;55.708;37.522;2022-08-03T06:00:16;99638.03;;;32.09;nan
63287;BME280;49410;55.708;37.522;2022-08-03T06:02:42;99644.41;;;32.15;nan
63287;BME280;49410;55.708;37.522;2022-08-03T06:05:08;99642.31;;;32.06;nan
63287;BME280;49410;55.708;37.522;2022-08-03T06:07:34;99627.47;;;31.87;nan
63287;BME280;49410;55.708;37.522;2022-08-03T06:10:00;99624.09;;;31.71;nan
63287;BME280;49410;55.708;37.522;2022-08-03T06:12:27;99619.78;;;31.59;nan
63287;BME280;49410;55.708;37.522;2022-08-03T06:14:53;99642.81;;;31.39;nan
63287;BME280;49410;55.708;37.522;2022-08-03T06:17:18;99636.97;;;31.16;nan
63287;BME280;49410;55.708;37.522;2022-08-03T06:19:44;99537.25;;;31.21;nan
63287;BME280;49410;55.708;37.522;2022-08-03T06:22:09;99539.81;;;30.70;nan
63287;BME280;49410;55.708;37.522;2022-08-03T06:24:35;99544.19;;;30.62;nan
63287;BME280;49410;55.708;37.522;2022-08-03T06:27:00;99539.59;;;30.47;nan
63287;BME280;49410;55.708;37.522;2022-08-03T06:29:26;99538.66;;;30.52;nan
63287;BME280;49410;55.708;37.522;2022-08-03T06:31:51;99546.25;;;30.57;nan
63287;BME280;49410;55.708;37.522;2022-08-03T06:34:17;99537.75;;;30.37;nan
63287;BME280;49410;55.708;37.522;2022-08-03T06:36:42;99540.25;;;30.25;nan
63287;BME280;49410;55.708;37.522;2022-08-03T06:39:08;99548.84;;;30.15;nan
63287;BME280;49410;55.708;37.522;2022-08-03T06:41:34;99547.94;;;29.76;nan
63287;BME280;49410;55.708;37.522;2022-08-03T06:43:59;99551.13;;;29.45;nan
63287;BME280;49410;55.708;37.522;2022-08-03T06:46:25;99558.06;;;29.28;nan
63287;BME280;49410;55.708;37.522;2022-08-03T06:48:50;99550.19;;;29.25;nan
63287;BME280;49410;55.708;37.522;2022-08-03T06:51:16;99557.19;;;29.04;nan
63287;BME280;49410;55.708;37.522;2022-08-03T06:53:42;99539.56;;;28.93;nan
63287;BME280;49410;55.708;37.522;2022-08-03T06:56:07;99540.41;;;28.93;nan
63287;BME280;49410;55.708;37.522;2022-08-03T06:58:33;99552.44;;;28.99;nan
63287;BME280;49410;55.708;37.522;2022-08-03T07:00:59;99548.91;;;28.88;nan
63287;BME280;49410;55.708;37.522;2022-08-03T07:03:25;99556.44;;;28.93;nan
63287;BME280;49410;55.708;37.522;2022-08-03T07:05:51;99558.22;;;28.84;nan
63287;BME280;49410;55.708;37.522;2022-08-03T07:08:47;99560.19;;;28.83;nan
63287;BME280;49410;55.708;37.522;2022-08-03T07:11:13;99553.22;;;28.75;nan
63287;BME280;49410;55.708;37.522;2022-08-03T07:13:38;99538.97;;;28.61;nan
63287;BME280;49410;55.708;37.522;2022-08-03T07:16:05;99553.75;;;28.77;nan
63287;BME280;49410;55.708;37.522;2022-08-03T07:18:30;99545.81;;;28.85;nan
63287;BME280;49410;55.708;37.522;2022-08-03T07:20:57;99549.69;;;28.94;nan
63287;BME280;49410;55.708;37.522;2022-08-03T07:23:23;99560.00;;;29.04;nan
63287;BME280;49410;55.708;37.522;2022-08-03T07:25:49;99566.91;;;28.87;nan
63287;BME280;49410;55.708;37.522;2022-08-03T07:28:15;99552.38;;;28.70;nan
63287;BME280;49410;55.708;37.522;2022-08-03T07:30:40;99565.31;;;28.76;nan
63287;BME280;49410;55.708;37.522;2022-08-03T07:33:06;99563.22;;;28.92;nan
63287;BME280;49410;55.708;37.522;2022-08-03T07:35:32;99557.81;;;28.95;nan
63287;BME280;49410;55.708;37.522;2022-08-03T07:37:58;99552.03;;;29.11;nan
63287;BME280;49410;55.708;37.522;2022-08-03T07:40:23;99550.59;;;28.89;nan
63287;BME280;49410;55.708;37.522;2022-08-03T07:42:49;99552.31;;;29.15;nan
63287;BME280;49410;55.708;37.522;2022-08-03T07:45:14;99561.69;;;29.29;nan
63287;BME280;49410;55.708;37.522;2022-08-03T07:47:40;99558.88;;;29.34;nan
63287;BME280;49410;55.708;37.522;2022-08-03T07:50:06;99564.03;;;29.22;nan
63287;BME280;49410;55.708;37.522;2022-08-03T07:52:31;99561.22;;;29.22;nan
63287;BME280;49410;55.708;37.522;2022-08-03T07:55:12;99568.03;;;29.45;nan
63287;BME280;49410;55.708;37.522;2022-08-03T07:57:38;99570.13;;;29.29;nan
63287;BME280;49410;55.708;37.522;2022-08-03T08:00:06;99574.06;;;29.04;nan
63287;BME280;49410;55.708;37.522;2022-08-03T08:02:35;99569.59;;;29.27;nan
63287;BME280;49410;55.708;37.522;2022-08-03T08:05:01;99564.72;;;29.08;nan
63287;BME280;49410;55.708;37.522;2022-08-03T08:07:26;99586.09;;;29.09;nan
63287;BME280;49410;55.708;37.522;2022-08-03T08:09:52;99577.03;;;28.88;nan
63287;BME280;49410;55.708;37.522;2022-08-03T08:12:17;99578.00;;;28.73;nan
63287;BME280;49410;55.708;37.522;2022-08-03T08:14:43;99571.53;;;28.73;nan
63287;BME280;49410;55.708;37.522;2022-08-03T08:17:11;99577.91;;;28.84;nan
63287;BME280;49410;55.708;37.522;2022-08-03T08:19:36;99570.69;;;28.72;nan
63287;BME280;49410;55.708;37.522;2022-08-03T08:22:02;99560.41;;;28.92;nan
63287;BME280;49410;55.708;37.522;2022-08-03T08:24:27;99577.22;;;29.26;nan
63287;BME280;49410;55.708;37.522;2022-08-03T08:26:55;99575.94;;;29.43;nan
63287;BME280;49410;55.708;37.522;2022-08-03T08:29:21;99568.44;;;29.33;nan
63287;BME280;49410;55.708;37.522;2022-08-03T08:31:48;99568.91;;;29.65;nan
63287;BME280;49410;55.708;37.522;2022-08-03T08:34:15;99558.44;;;29.70;nan
63287;BME280;49410;55.708;37.522;2022-08-03T08:36:40;99570.56;;;29.90;nan
63287;BME280;49410;55.708;37.522;2022-08-03T08:39:06;99568.56;;;29.96;nan
63287;BME280;49410;55.708;37.522;2022-08-03T08:41:32;99569.31;;;30.01;nan
63287;BME280;49410;55.708;37.522;2022-08-03T08:44:01;99562.53;;;30.02;nan
63287;BME280;49410;55.708;37.522;2022-08-03T08:46:31;99571.31;;;30.01;nan
63287;BME280;49410;55.708;37.522;2022-08-03T08:48:58;99562.88;;;30.01;nan
63287;BME280;49410;55.708;37.522;2022-08-03T08:51:27;99565.47;;;29.92;nan
63287;BME280;49410;55.708;37.522;2022-08-03T08:53:55;99562.78;;;30.06;nan
63287;BME280;49410;55.708;37.522;2022-08-03T08:56:24;99562.09;;;30.33;nan
63287;BME280;49410;55.708;37.522;2022-08-03T08:58:57;99558.13;;;30.54;nan
63287;BME280;49410;55.708;37.522;2022-08-03T09:01:23;99573.47;;;30.66;nan
63287;BME280;49410;55.708;37.522;2022-08-03T09:03:49;99556.84;;;30.27;nan
63287;BME280;49410;55.708;37.522;2022-08-03T09:06:15;99559.91;;;30.11;nan
63287;BME280;49410;55.708;37.522;2022-08-03T09:08:42;99574.13;;;30.01;nan
63287;BME280;49410;55.708;37.522;2022-08-03T09:11:07;99577.97;;;29.86;nan
63287;BME280;49410;55.708;37.522;2022-08-03T09:13:34;99559.78;;;29.54;nan
63287;BME280;49410;55.708;37.522;2022-08-03T09:16:22;99562.41;;;29.45;nan
63287;BME280;49410;55.708;37.522;2022-08-03T09:18:50;99564.84;;;29.52;nan
63287;BME280;49410;55.708;37.522;2022-08-03T09:24:01;99583.72;;;29.75;nan
63287;BME280;49410;55.708;37.522;2022-08-03T09:26:29;99574.75;;;29.93;nan
63287;BME280;49410;55.708;37.522;2022-08-03T09:29:08;99575.50;;;30.03;nan
63287;BME280;49410;55.708;37.522;2022-08-03T09:31:45;99565.53;;;29.87;nan
63287;BME280;49410;55.708;37.522;2022-08-03T09:34:13;99578.47;;;29.93;nan
63287;BME280;49410;55.708;37.522;2022-08-03T09:36:41;99579.38;;;29.83;nan
63287;BME280;49410;55.708;37.522;2022-08-03T09:39:09;99563.09;;;29.56;nan
63287;BME280;49410;55.708;37.522;2022-08-03T09:41:38;99576.47;;;29.45;nan
63287;BME280;49410;55.708;37.522;2022-08-03T09:44:04;99570.81;;;29.50;nan
63287;BME280;49410;55.708;37.522;2022-08-03T09:46:30;99573.44;;;29.41;nan
63287;BME280;49410;55.708;37.522;2022-08-03T09:49:12;99561.03;;;29.42;nan
63287;BME280;49410;55.708;37.522;2022-08-03T09:51:39;99566.03;;;29.46;nan
63287;BME280;49410;55.708;37.522;2022-08-03T09:54:05;99570.47;;;29.76;nan
63287;BME280;49410;55.708;37.522;2022-08-03T09:56:45;99562.38;;;29.69;nan
63287;BME280;49410;55.708;37.522;2022-08-03T09:59:12;99549.53;;;29.82;nan
63287;BME280;49410;55.708;37.522;2022-08-03T10:01:38;99566.44;;;30.07;nan
63287;BME280;49410;55.708;37.522;2022-08-03T10:04:12;99573.59;;;30.18;nan
63287;BME280;49410;55.708;37.522;2022-08-03T10:06:39;99569.94;;;30.17;nan
63287;BME280;49410;55.708;37.522;2022-08-03T10:09:07;99566.13;;;30.27;nan
63287;BME280;49410;55.708;37.522;2022-08-03T10:11:33;99540.25;;;30.25;nan
63287;BME280;49410;55.708;37.522;2022-08-03T10:14:07;99562.38;;;30.51;nan
63287;BME280;49410;55.708;37.522;2022-08-03T10:16:35;99561.00;;;30.48;nan
63287;BME280;49410;55.708;37.522;2022-08-03T10:19:03;99575.34;;;30.52;nan
63287;BME280;49410;55.708;37.522;2022-08-03T10:21:33;99565.44;;;30.55;nan
63287;BME280;49410;55.708;37.522;2022-08-03T10:24:02;99567.06;;;30.61;nan
63287;BME280;49410;55.708;37.522;2022-08-03T10:26:30;99578.25;;;30.66;nan
63287;BME280;49410;55.708;37.522;2022-08-03T10:28:59;99568.63;;;30.67;nan
63287;BME280;49410;55.708;37.522;2022-08-03T10:31:37;99567.41;;;30.73;nan
63287;BME280;49410;55.708;37.522;2022-08-03T10:34:11;99570.69;;;30.80;nan
63287;BME280;49410;55.708;37.522;2022-08-03T10:36:40;99572.19;;;30.92;nan
63287;BME280;49410;55.708;37.522;2022-08-03T10:39:06;99573.31;;;30.58;nan
63287;BME280;49410;55.708;37.522;2022-08-03T10:41:36;99583.56;;;30.29;nan
63287;BME280;49410;55.708;37.522;2022-08-03T10:44:07;99583.44;;;30.20;nan
63287;BME280;49410;55.708;37.522;2022-08-03T10:46:35;99579.69;;;30.06;nan
63287;BME280;49410;55.708;37.522;2022-08-03T10:49:03;99575.34;;;29.70;nan
63287;BME280;49410;55.708;37.522;2022-08-03T10:51:30;99574.91;;;29.58;nan
63287;BME280;49410;55.708;37.522;2022-08-03T10:53:57;99587.38;;;29.52;nan
63287;BME280;49410;55.708;37.522;2022-08-03T11:02:11;99590.09;;;29.38;nan
63287;BME280;49410;55.708;37.522;2022-08-03T11:04:38;99587.03;;;29.34;nan
63287;BME280;49410;55.708;37.522;2022-08-03T11:07:23;99579.84;;;29.18;nan
63287;BME280;49410;55.708;37.522;2022-08-03T11:09:52;99583.97;;;29.25;nan
63287;BME280;49410;55.708;37.522;2022-08-03T11:12:28;99588.81;;;29.20;nan
63287;BME280;49410;55.708;37.522;2022-08-03T11:14:55;99581.94;;;29.31;nan
63287;BME280;49410;55.708;37.522;2022-08-03T11:17:21;99575.69;;;29.39;nan
63287;BME280;49410;55.708;37.522;2022-08-03T11:19:51;99580.00;;;29.56;nan
63287;BME280;49410;55.708;37.522;2022-08-03T11:22:18;99579.13;;;29.61;nan
63287;BME280;49410;55.708;37.522;2022-08-03T11:27:32;99574.69;;;29.54;nan
63287;BME280;49410;55.708;37.522;2022-08-03T11:35:10;99579.94;;;29.61;nan
63287;BME280;49410;55.708;37.522;2022-08-03T11:40:47;99592.56;;;29.88;nan
63287;BME280;49410;55.708;37.522;2022-08-03T11:48:51;99586.91;;;30.12;nan
63287;BME280;49410;55.708;37.522;2022-08-03T11:51:23;99582.50;;;30.06;nan
63287;BME280;49410;55.708;37.522;2022-08-03T11:56:18;99570.53;;;30.14;nan
63287;BME280;49410;55.708;37.522;2022-08-03T11:58:52;99567.34;;;30.21;nan
63287;BME280;49410;55.708;37.522;2022-08-03T12:01:19;99572.63;;;30.28;nan
63287;BME280;49410;55.708;37.522;2022-08-03T12:03:45;99573.69;;;30.32;nan
63287;BME280;49410;55.708;37.522;2022-08-03T12:06:12;99559.88;;;30.30;nan
63287;BME280;49410;55.708;37.522;2022-08-03T12:08:39;99569.47;;;30.29;nan
63287;BME280;49410;55.708;37.522;2022-08-03T12:11:07;99575.97;;;30.30;nan
63287;BME280;49410;55.708;37.522;2022-08-03T12:13:44;99568.34;;;30.30;nan
63287;BME280;49410;55.708;37.522;2022-08-03T12:16:17;99570.88;;;30.32;nan
63287;BME280;49410;55.708;37.522;2022-08-03T12:18:44;99558.41;;;30.33;nan
63287;BME280;49410;55.708;37.522;2022-08-03T12:21:10;99571.84;;;30.41;nan
63287;BME280;49410;55.708;37.522;2022-08-03T12:23:37;99560.09;;;30.34;nan
63287;BME280;49410;55.708;37.522;2022-08-03T12:26:05;99555.59;;;30.33;nan
63287;BME280;49410;55.708;37.522;2022-08-03T12:28:32;99568.13;;;30.27;nan
63287;BME280;49410;55.708;37.522;2022-08-03T12:31:04;99570.00;;;30.12;nan
63287;BME280;49410;55.708;37.522;2022-08-03T12:33:32;99544.91;;;29.91;nan
63287;BME280;49410;55.708;37.522;2022-08-03T12:36:18;99564.59;;;29.97;nan
63287;BME280;49410;55.708;37.522;2022-08-03T12:38:53;99557.63;;;29.89;nan
63287;BME280;49410;55.708;37.522;2022-08-03T12:41:27;99562.25;;;29.80;nan
63287;BME280;49410;55.708;37.522;2022-08-03T12:43:53;99564.53;;;29.78;nan
63287;BME280;49410;55.708;37.522;2022-08-03T12:46:19;99558.97;;;29.72;nan
63287;BME280;49410;55.708;37.522;2022-08-03T12:51:32;99564.31;;;29.50;nan
63287;BME280;49410;55.708;37.522;2022-08-03T12:53:58;99559.53;;;29.50;nan
63287;BME280;49410;55.708;37.522;2022-08-03T12:56:25;99571.09;;;29.49;nan
63287;BME280;49410;55.708;37.522;2022-08-03T12:58:50;99573.13;;;29.43;nan
63287;BME280;49410;55.708;37.522;2022-08-03T13:01:17;99573.47;;;29.36;nan
63287;BME280;49410;55.708;37.522;2022-08-03T13:03:45;99571.81;;;29.35;nan
63287;BME280;49410;55.708;37.522;2022-08-03T13:06:13;99571.00;;;29.29;nan
63287;BME280;49410;55.708;37.522;2022-08-03T13:08:39;99568.53;;;29.23;nan
63287;BME280;49410;55.708;37.522;2022-08-03T13:11:24;99574.75;;;29.20;nan
63287;BME280;49410;55.708;37.522;2022-08-03T13:13:51;99562.69;;;29.14;nan
63287;BME280;49410;55.708;37.522;2022-08-03T13:16:17;99571.69;;;29.16;nan
63287;BME280;49410;55.708;37.522;2022-08-03T13:18:43;99584.56;;;29.22;nan
63287;BME280;49410;55.708;37.522;2022-08-03T13:21:12;99579.47;;;29.24;nan
63287;BME280;49410;55.708;37.522;2022-08-03T13:23:37;99573.31;;;29.22;nan
63287;BME280;49410;55.708;37.522;2022-08-03T13:26:03;99562.69;;;29.14;nan
63287;BME280;49410;55.708;37.522;2022-08-03T13:28:28;99570.00;;;29.15;nan
63287;BME280;49410;55.708;37.522;2022-08-03T13:30:54;99568.63;;;29.12;nan
63287;BME280;49410;55.708;37.522;2022-08-03T13:33:19;99565.81;;;29.12;nan
63287;BME280;49410;55.708;37.522;2022-08-03T13:35:45;99572.53;;;29.17;nan
63287;BME280;49410;55.708;37.522;2022-08-03T13:38:10;99576.19;;;29.17;nan
63287;BME280;49410;55.708;37.522;2022-08-03T13:40:36;99577.63;;;29.15;nan
63287;BME280;49410;55.708;37.522;2022-08-03T13:43:02;99556.84;;;29.10;nan
63287;BME280;49410;55.708;37.522;2022-08-03T13:45:28;99564.06;;;29.17;nan
63287;BME280;49410;55.708;37.522;2022-08-03T13:47:53;99555.94;;;29.15;nan
63287;BME280;49410;55.708;37.522;2022-08-03T13:50:19;99561.81;;;29.19;nan
63287;BME280;49410;55.708;37.522;2022-08-03T13:52:45;99565.41;;;29.24;nan
63287;BME280;49410;55.708;37.522;2022-08-03T13:55:11;99559.47;;;29.26;nan
63287;BME280;49410;55.708;37.522;2022-08-03T13:57:36;99566.19;;;29.35;nan
63287;BME280;49410;55.708;37.522;2022-08-03T14:00:15;99556.88;;;29.35;nan
63287;BME280;49410;55.708;37.522;2022-08-03T14:02:42;99553.13;;;29.44;nan
63287;BME280;49410;55.708;37.522;2022-08-03T14:05:07;99553.63;;;29.47;nan
63287;BME280;49410;55.708;37.522;2022-08-03T14:07:33;99564.41;;;29.64;nan
63287;BME280;49410;55.708;37.522;2022-08-03T14:09:58;99559.09;;;29.62;nan
63287;BME280;49410;55.708;37.522;2022-08-03T14:12:26;99564.38;;;29.69;nan
63287;BME280;49410;55.708;37.522;2022-08-03T14:14:51;99570.56;;;29.71;nan
63287;BME280;49410;55.708;37.522;2022-08-03T14:17:17;99564.91;;;29.71;nan
63287;BME280;49410;55.708;37.522;2022-08-03T14:19:42;99564.16;;;29.65;nan
63287;BME280;49410;55.708;37.522;2022-08-03T14:22:08;99558.31;;;29.56;nan
63287;BME280;49410;55.708;37.522;2022-08-03T14:24:33;99554.41;;;29.52;nan